Time;durP1;ratioP1;P1;durP2;ratioP2;P2;SDS_P1;SDS_P2;PMS_P1;PMS_P2;Temp;Humidity;BMP_temperature;BMP_pressure;BME280_temperature;BME280_humidity;BME280_pressure;Samples;Min_cycle;Max_cycle;Signal;HPM_P1;HPM_P2
2023/06/02 00:02:13;;;;;;;;;;;19.10;65.40;;;;;;5025948;28;1257;-68
2023/06/02 00:04:40;;;;;;;;;;;19.20;65.60;;;;;;5030303;28;978;-68
2023/06/02 00:07:07;;;;;;;;;;;19.10;65.40;;;;;;5029206;28;896;-68
2023/06/02 00:09:37;;;;;;;;;;;19.10;65.50;;;;;;5023106;28;1918;-69
2023/06/02 00:12:02;;;;;;;;;;;19.20;65.50;;;;;;5022767;28;892;-68
2023/06/02 00:14:28;;;;;;;;;;;19.20;65.50;;;;;;5029877;28;1268;-68
2023/06/02 00:16:55;;;;;;;;;;;19.20;65.60;;;;;;5029263;28;839;-69
2023/06/02 00:19:23;;;;;;;;;;;19.20;65.50;;;;;;5028362;28;851;-68
2023/06/02 00:21:49;;;;;;;;;;;19.20;65.60;;;;;;5028051;28;828;-68
2023/06/02 00:24:14;;;;;;;;;;;19.10;65.50;;;;;;5029965;28;1259;-68
2023/06/02 00:26:40;;;;;;;;;;;19.10;65.50;;;;;;5028450;28;1275;-68
2023/06/02 00:29:05;;;;;;;;;;;19.10;65.50;;;;;;5029696;28;1887;-68
2023/06/02 00:31:31;;;;;;;;;;;19.20;65.60;;;;;;5028744;28;776;-69
2023/06/02 00:33:56;;;;;;;;;;;19.10;65.50;;;;;;5027266;28;1255;-68
2023/06/02 00:36:21;;;;;;;;;;;19.20;65.60;;;;;;5029558;28;829;-68
2023/06/02 00:38:47;;;;;;;;;;;19.20;65.60;;;;;;5027462;28;899;-68
2023/06/02 00:41:13;;;;;;;;;;;19.10;65.50;;;;;;5029147;28;1270;-68
2023/06/02 00:43:38;;;;;;;;;;;19.10;65.50;;;;;;5027926;28;1287;-69
2023/06/02 00:46:03;;;;;;;;;;;19.10;66.30;;;;;;5027763;28;871;-68
2023/06/02 00:48:29;;;;;;;;;;;19.10;65.50;;;;;;5027656;28;1902;-67
2023/06/02 00:50:54;;;;;;;;;;;19.10;65.60;;;;;;5029882;28;934;-69
2023/06/02 00:53:20;;;;;;;;;;;19.10;65.60;;;;;;5029642;28;1287;-68
2023/06/02 00:55:46;;;;;;;;;;;19.10;65.60;;;;;;5031104;28;1337;-68
2023/06/02 00:58:13;;;;;;;;;;;19.10;65.60;;;;;;5027858;28;891;-68
2023/06/02 01:00:41;;;;;;;;;;;19.10;65.60;;;;;;5025021;28;823;-69
2023/06/02 01:03:07;;;;;;;;;;;19.10;65.60;;;;;;5027511;28;1366;-69
2023/06/02 01:05:33;;;;;;;;;;;19.20;65.60;;;;;;5020547;28;1657;-69
2023/06/02 01:07:59;;;;;;;;;;;19.10;65.60;;;;;;5023888;28;946;-68
2023/06/02 01:10:25;;;;;;;;;;;19.10;65.60;;;;;;5028730;28;1979;-69
2023/06/02 01:12:50;;;;;;;;;;;19.10;65.60;;;;;;5027118;28;1827;-68
2023/06/02 01:15:16;;;;;;;;;;;19.20;65.70;;;;;;5011012;28;1374;-69
2023/06/02 01:17:45;;;;;;;;;;;19.10;65.60;;;;;;5028428;28;887;-68
2023/06/02 01:20:11;;;;;;;;;;;19.20;65.70;;;;;;5028486;28;832;-67
2023/06/02 01:22:49;;;;;;;;;;;19.10;65.60;;;;;;5025376;28;1240;-68
2023/06/02 01:25:15;;;;;;;;;;;19.10;65.60;;;;;;5025865;28;805;-68
2023/06/02 01:27:41;;;;;;;;;;;19.10;65.60;;;;;;5027829;28;1053;-68
2023/06/02 01:30:07;;;;;;;;;;;19.10;65.60;;;;;;5028451;28;1898;-69
2023/06/02 01:32:34;;;;;;;;;;;19.10;65.60;;;;;;5029779;28;1287;-69
2023/06/02 01:35:02;;;;;;;;;;;19.10;65.60;;;;;;5024650;28;1143;-68
2023/06/02 01:37:28;;;;;;;;;;;19.10;65.60;;;;;;5026066;28;921;-68
2023/06/02 01:39:53;;;;;;;;;;;19.10;65.70;;;;;;5028011;28;800;-68
2023/06/02 01:42:19;;;;;;;;;;;19.10;65.60;;;;;;5027895;28;1371;-68
2023/06/02 01:44:44;;;;;;;;;;;19.10;65.60;;;;;;5027409;28;1104;-69
2023/06/02 01:47:10;;;;;;;;;;;19.10;65.70;;;;;;5026479;28;1179;-68
2023/06/02 01:49:35;;;;;;;;;;;19.10;65.60;;;;;;5024715;28;1898;-69
2023/06/02 01:52:02;;;;;;;;;;;19.10;65.70;;;;;;5026125;28;884;-68
2023/06/02 01:54:27;;;;;;;;;;;19.20;65.70;;;;;;5026889;28;1356;-68
2023/06/02 01:56:53;;;;;;;;;;;19.10;65.70;;;;;;5026020;28;857;-68
2023/06/02 01:59:18;;;;;;;;;;;19.20;65.80;;;;;;5028741;28;877;-68
2023/06/02 02:01:45;;;;;;;;;;;19.10;65.70;;;;;;5031906;28;912;-68
2023/06/02 02:04:10;;;;;;;;;;;19.10;65.70;;;;;;5031455;28;1340;-68
2023/06/02 02:06:37;;;;;;;;;;;19.10;65.70;;;;;;5030381;28;884;-68
2023/06/02 02:09:03;;;;;;;;;;;19.10;65.70;;;;;;5030824;28;1969;-69
2023/06/02 02:11:29;;;;;;;;;;;19.10;65.70;;;;;;5030864;28;856;-68
2023/06/02 02:13:55;;;;;;;;;;;19.10;65.70;;;;;;5028820;28;1299;-67
2023/06/02 02:16:20;;;;;;;;;;;19.10;65.80;;;;;;5027476;28;1389;-68
2023/06/02 02:18:46;;;;;;;;;;;19.10;65.70;;;;;;5032318;28;938;-68
2023/06/02 02:21:12;;;;;;;;;;;19.10;65.80;;;;;;5032113;28;800;-68
2023/06/02 02:23:37;;;;;;;;;;;19.10;65.80;;;;;;5029412;28;1250;-69
2023/06/02 02:26:03;;;;;;;;;;;19.10;65.80;;;;;;5026269;28;1191;-68
2023/06/02 02:28:29;;;;;;;;;;;19.10;65.70;;;;;;5032154;28;1952;-68
2023/06/02 02:30:54;;;;;;;;;;;19.10;65.80;;;;;;5028717;28;815;-68
2023/06/02 02:33:20;;;;;;;;;;;19.10;65.80;;;;;;5031696;28;1332;-69
2023/06/02 02:35:46;;;;;;;;;;;19.10;65.80;;;;;;5031804;28;894;-67
2023/06/02 02:38:11;;;;;;;;;;;19.10;65.80;;;;;;5029647;28;848;-68
2023/06/02 02:40:37;;;;;;;;;;;19.10;65.80;;;;;;5030664;28;1014;-68
2023/06/02 02:43:02;;;;;;;;;;;19.10;65.80;;;;;;5030586;28;1350;-68
2023/06/02 02:45:28;;;;;;;;;;;19.10;65.80;;;;;;5032013;28;880;-68
2023/06/02 02:47:53;;;;;;;;;;;19.10;65.80;;;;;;5030572;28;1018;-68
2023/06/02 02:50:19;;;;;;;;;;;19.10;65.80;;;;;;5030119;28;1960;-68
2023/06/02 02:52:44;;;;;;;;;;;19.10;65.80;;;;;;5030498;28;1259;-68
2023/06/02 02:55:10;;;;;;;;;;;19.10;65.80;;;;;;5029763;28;1057;-68
2023/06/02 02:57:36;;;;;;;;;;;19.10;65.80;;;;;;5030918;28;808;-67
2023/06/02 03:00:04;;;;;;;;;;;19.10;65.80;;;;;;5031267;28;893;-68
2023/06/02 03:02:30;;;;;;;;;;;19.10;65.80;;;;;;5029772;28;1290;-68
2023/06/02 03:04:56;;;;;;;;;;;19.10;65.80;;;;;;5028875;28;781;-68
2023/06/02 03:07:22;;;;;;;;;;;19.10;65.80;;;;;;5030884;28;1170;-68
2023/06/02 03:09:48;;;;;;;;;;;19.10;65.80;;;;;;5025847;28;1906;-68
2023/06/02 03:12:13;;;;;;;;;;;19.10;65.90;;;;;;5029225;28;1274;-68
2023/06/02 03:14:39;;;;;;;;;;;19.10;65.80;;;;;;5030938;28;927;-68
2023/06/02 03:17:05;;;;;;;;;;;19.10;66.60;;;;;;5030229;28;1004;-68
2023/06/02 03:19:30;;;;;;;;;;;19.10;65.90;;;;;;5029499;28;852;-68
2023/06/02 03:21:56;;;;;;;;;;;19.10;65.90;;;;;;5029104;28;892;-68
2023/06/02 03:24:21;;;;;;;;;;;19.10;65.90;;;;;;5029201;28;1275;-68
2023/06/02 03:26:47;;;;;;;;;;;19.10;65.80;;;;;;5029192;28;935;-68
2023/06/02 03:29:12;;;;;;;;;;;19.10;65.90;;;;;;5030695;28;1910;-68
2023/06/02 03:31:38;;;;;;;;;;;19.10;65.90;;;;;;5028172;28;882;-68
2023/06/02 03:34:04;;;;;;;;;;;19.10;65.90;;;;;;5029458;28;1404;-68
2023/06/02 03:36:29;;;;;;;;;;;19.10;65.90;;;;;;5029603;28;872;-68
2023/06/02 03:38:55;;;;;;;;;;;19.10;65.90;;;;;;5027807;28;875;-68
2023/06/02 03:41:21;;;;;;;;;;;19.10;65.90;;;;;;5030615;28;1245;-68
2023/06/02 03:43:47;;;;;;;;;;;19.10;65.90;;;;;;5029978;28;1396;-68
2023/06/02 03:46:12;;;;;;;;;;;19.10;66.00;;;;;;5030398;28;797;-68
2023/06/02 03:48:38;;;;;;;;;;;19.10;65.90;;;;;;5029466;28;1953;-68
2023/06/02 03:51:03;;;;;;;;;;;19.10;65.90;;;;;;5030471;28;825;-68
2023/06/02 03:53:30;;;;;;;;;;;19.10;66.00;;;;;;5030294;28;1365;-68
2023/06/02 03:55:55;;;;;;;;;;;19.10;65.90;;;;;;5030330;28;943;-68
2023/06/02 03:58:21;;;;;;;;;;;19.10;65.90;;;;;;5030430;28;1014;-68
2023/06/02 04:00:48;;;;;;;;;;;19.10;65.90;;;;;;5030546;28;841;-69
2023/06/02 04:03:13;;;;;;;;;;;19.10;66.00;;;;;;5030270;28;1257;-68
2023/06/02 04:05:39;;;;;;;;;;;19.10;66.00;;;;;;5027352;28;887;-68
2023/06/02 04:08:06;;;;;;;;;;;19.10;66.00;;;;;;5027229;28;853;-68
2023/06/02 04:10:32;;;;;;;;;;;19.10;66.00;;;;;;5029013;28;1958;-68
2023/06/02 04:12:58;;;;;;;;;;;19.10;66.00;;;;;;5028176;28;1583;-68
2023/06/02 04:15:24;;;;;;;;;;;19.10;66.00;;;;;;5029396;28;895;-68
2023/06/02 04:17:49;;;;;;;;;;;19.10;66.00;;;;;;5029010;28;832;-68
2023/06/02 04:20:15;;;;;;;;;;;19.10;66.00;;;;;;5027063;28;797;-68
2023/06/02 04:22:40;;;;;;;;;;;19.10;66.00;;;;;;5026926;28;1357;-68
2023/06/02 04:25:06;;;;;;;;;;;19.10;66.00;;;;;;5030412;28;876;-68
2023/06/02 04:27:31;;;;;;;;;;;19.10;66.00;;;;;;5028004;28;863;-68
2023/06/02 04:29:58;;;;;;;;;;;19.10;66.00;;;;;;5028926;28;1945;-68
2023/06/02 04:32:23;;;;;;;;;;;19.10;66.00;;;;;;5027574;28;1354;-68
2023/06/02 04:34:49;;;;;;;;;;;19.10;66.00;;;;;;5024334;28;997;-68
2023/06/02 04:37:14;;;;;;;;;;;19.10;66.00;;;;;;5029288;28;846;-68
2023/06/02 04:39:41;;;;;;;;;;;19.10;66.10;;;;;;5029380;28;903;-68
2023/06/02 04:42:07;;;;;;;;;;;19.10;66.00;;;;;;5024606;28;1314;-68
2023/06/02 04:44:34;;;;;;;;;;;19.10;66.10;;;;;;5024181;28;2030;-67
2023/06/02 04:46:59;;;;;;;;;;;19.10;66.00;;;;;;5021855;28;1446;-69
2023/06/02 04:49:25;;;;;;;;;;;19.10;66.10;;;;;;5024872;28;1952;-68
2023/06/02 04:51:51;;;;;;;;;;;19.10;66.00;;;;;;5027383;28;2166;-68
2023/06/02 04:54:16;;;;;;;;;;;19.10;66.10;;;;;;5027999;28;1260;-69
2023/06/02 04:56:42;;;;;;;;;;;19.10;66.00;;;;;;5024841;28;861;-69
2023/06/02 04:59:07;;;;;;;;;;;19.10;66.10;;;;;;5026845;28;1250;-70
2023/06/02 05:01:33;;;;;;;;;;;19.10;66.10;;;;;;5029606;28;804;-67
2023/06/02 05:03:58;;;;;;;;;;;19.10;66.10;;;;;;5028918;28;1911;-68
2023/06/02 05:06:24;;;;;;;;;;;19.10;66.10;;;;;;5031166;28;1397;-67
2023/06/02 05:08:50;;;;;;;;;;;19.10;66.10;;;;;;5028308;28;1914;-68
2023/06/02 05:11:15;;;;;;;;;;;19.10;66.10;;;;;;5027471;28;1049;-67
2023/06/02 05:13:41;;;;;;;;;;;19.10;66.10;;;;;;5025505;28;1324;-67
2023/06/02 05:16:06;;;;;;;;;;;19.10;66.10;;;;;;5028637;28;896;-67
2023/06/02 05:18:33;;;;;;;;;;;19.10;66.10;;;;;;5029905;28;812;-68
2023/06/02 05:20:59;;;;;;;;;;;19.10;66.10;;;;;;5023158;28;844;-67
2023/06/02 05:23:24;;;;;;;;;;;19.10;66.10;;;;;;5026635;28;1361;-67
2023/06/02 05:25:51;;;;;;;;;;;19.10;66.10;;;;;;5024521;28;1239;-67
2023/06/02 05:28:16;;;;;;;;;;;19.10;66.10;;;;;;5024279;28;1062;-67
2023/06/02 05:30:42;;;;;;;;;;;19.10;66.10;;;;;;5028514;28;1898;-66
2023/06/02 05:33:07;;;;;;;;;;;19.10;66.10;;;;;;5028114;28;1215;-67
2023/06/02 05:35:33;;;;;;;;;;;19.10;65.90;;;;;;5028791;28;808;-67
2023/06/02 05:37:58;;;;;;;;;;;19.10;65.20;;;;;;5027330;28;2118;-67
2023/06/02 05:40:23;;;;;;;;;;;19.10;64.80;;;;;;5028480;28;1465;-67
2023/06/02 05:42:49;;;;;;;;;;;19.10;64.30;;;;;;5027587;28;1431;-67
2023/06/02 05:45:15;;;;;;;;;;;19.10;63.80;;;;;;5026685;28;1040;-67
2023/06/02 05:47:40;;;;;;;;;;;19.10;63.60;;;;;;5028803;28;832;-67
2023/06/02 05:50:06;;;;;;;;;;;19.10;63.20;;;;;;5022071;28;1948;-67
2023/06/02 05:52:31;;;;;;;;;;;19.10;63.10;;;;;;5027446;28;1268;-67
2023/06/02 05:54:56;;;;;;;;;;;19.10;63.10;;;;;;5026266;28;911;-67
2023/06/02 05:57:22;;;;;;;;;;;19.10;63.00;;;;;;5028915;28;896;-67
2023/06/02 05:59:47;;;;;;;;;;;19.00;62.70;;;;;;5028541;28;858;-67
2023/06/02 06:02:13;;;;;;;;;;;19.10;62.70;;;;;;5027394;28;1326;-67
2023/06/02 06:04:38;;;;;;;;;;;19.00;62.20;;;;;;5028769;28;1073;-67
2023/06/02 06:07:04;;;;;;;;;;;19.10;62.20;;;;;;5027492;28;860;-67
2023/06/02 06:09:29;;;;;;;;;;;19.00;62.00;;;;;;5023539;28;1913;-67
2023/06/02 06:11:55;;;;;;;;;;;19.00;62.00;;;;;;5029149;28;879;-67
2023/06/02 06:14:20;;;;;;;;;;;19.10;62.10;;;;;;5028011;28;1272;-67
2023/06/02 06:16:46;;;;;;;;;;;19.00;61.70;;;;;;5027997;28;882;-67
2023/06/02 06:19:11;;;;;;;;;;;19.00;61.40;;;;;;5027565;28;884;-67
2023/06/02 06:21:37;;;;;;;;;;;19.00;61.40;;;;;;5025095;28;856;-67
2023/06/02 06:24:03;;;;;;;;;;;19.00;62.20;;;;;;5027735;28;1271;-67
2023/06/02 06:26:29;;;;;;;;;;;19.00;61.40;;;;;;5029114;28;904;-67
2023/06/02 06:28:54;;;;;;;;;;;19.00;61.30;;;;;;5028950;28;1978;-67
2023/06/02 06:31:19;;;;;;;;;;;19.00;61.40;;;;;;5026379;28;1034;-67
2023/06/02 06:33:45;;;;;;;;;;;19.00;61.50;;;;;;5027335;28;1388;-67
2023/06/02 06:36:10;;;;;;;;;;;19.00;61.40;;;;;;5026550;28;820;-67
2023/06/02 06:38:36;;;;;;;;;;;19.00;61.40;;;;;;5028018;28;1022;-67
2023/06/02 06:41:01;;;;;;;;;;;19.00;61.40;;;;;;5027804;28;1589;-67
2023/06/02 06:43:27;;;;;;;;;;;19.00;61.30;;;;;;5027565;28;1256;-67
2023/06/02 06:45:52;;;;;;;;;;;19.00;61.30;;;;;;5031324;28;1002;-68
2023/06/02 06:48:18;;;;;;;;;;;19.00;61.30;;;;;;5030727;28;856;-68
2023/06/02 06:50:43;;;;;;;;;;;19.00;61.10;;;;;;5029314;28;1906;-68
2023/06/02 06:53:09;;;;;;;;;;;19.00;60.90;;;;;;5029365;28;1357;-68
2023/06/02 06:55:34;;;;;;;;;;;19.00;60.80;;;;;;5031961;28;799;-68
2023/06/02 06:58:00;;;;;;;;;;;19.00;61.00;;;;;;5031001;28;805;-68
2023/06/02 07:00:26;;;;;;;;;;;19.00;60.80;;;;;;5028909;28;1192;-68
2023/06/02 07:02:52;;;;;;;;;;;18.90;60.90;;;;;;5029894;28;1260;-68
2023/06/02 07:05:18;;;;;;;;;;;18.90;60.90;;;;;;5023324;28;849;-68
2023/06/02 07:07:43;;;;;;;;;;;18.90;60.80;;;;;;5029042;28;1279;-67
2023/06/02 07:10:10;;;;;;;;;;;18.90;60.80;;;;;;5027882;28;2341;-67
2023/06/02 07:12:36;;;;;;;;;;;19.00;61.30;;;;;;5029175;28;1266;-68
2023/06/02 07:15:02;;;;;;;;;;;19.00;61.20;;;;;;5028433;28;1459;-68
2023/06/02 07:17:28;;;;;;;;;;;19.00;61.40;;;;;;5025273;28;1261;-69
2023/06/02 07:19:53;;;;;;;;;;;19.00;61.70;;;;;;5028763;28;1456;-68
2023/06/02 07:22:19;;;;;;;;;;;19.10;62.10;;;;;;5026137;28;1961;-69
2023/06/02 07:24:44;;;;;;;;;;;19.10;62.40;;;;;;5030939;28;1641;-69
2023/06/02 07:27:10;;;;;;;;;;;19.10;62.60;;;;;;5026640;28;912;-69
2023/06/02 07:29:35;;;;;;;;;;;19.10;62.90;;;;;;5027395;28;1957;-68
2023/06/02 07:32:01;;;;;;;;;;;19.10;62.80;;;;;;5030495;28;797;-68
2023/06/02 07:34:26;;;;;;;;;;;19.20;63.00;;;;;;5031624;28;1256;-68
2023/06/02 07:36:52;;;;;;;;;;;19.20;63.10;;;;;;5030399;28;868;-69
2023/06/02 07:39:18;;;;;;;;;;;19.20;63.20;;;;;;5032061;28;984;-68
2023/06/02 07:41:43;;;;;;;;;;;19.20;63.40;;;;;;5030728;28;1257;-68
2023/06/02 07:44:09;;;;;;;;;;;19.20;63.50;;;;;;5028230;28;1288;-68
2023/06/02 07:46:34;;;;;;;;;;;19.20;63.60;;;;;;5032592;28;875;-68
2023/06/02 07:49:01;;;;;;;;;;;19.20;63.60;;;;;;5028716;28;2228;-67
2023/06/02 07:51:26;;;;;;;;;;;19.20;63.70;;;;;;5032862;28;887;-68
2023/06/02 07:53:52;;;;;;;;;;;19.20;64.60;;;;;;5033211;28;1256;-68
2023/06/02 07:56:17;;;;;;;;;;;19.20;64.00;;;;;;5030201;28;927;-69
2023/06/02 07:58:44;;;;;;;;;;;19.20;64.10;;;;;;5031315;28;881;-69
2023/06/02 08:01:10;;;;;;;;;;;19.20;64.20;;;;;;5029948;28;892;-69
2023/06/02 08:03:35;;;;;;;;;;;19.20;64.30;;;;;;5030267;28;1276;-67
2023/06/02 08:06:01;;;;;;;;;;;19.20;64.40;;;;;;5029357;28;901;-68
2023/06/02 08:08:26;;;;;;;;;;;19.20;64.50;;;;;;5028007;28;1010;-67
2023/06/02 08:10:53;;;;;;;;;;;19.20;64.60;;;;;;5029296;28;1915;-69
2023/06/02 08:13:18;;;;;;;;;;;19.20;64.70;;;;;;5027639;28;1317;-69
2023/06/02 08:15:44;;;;;;;;;;;19.20;64.70;;;;;;5029291;28;888;-70
2023/06/02 08:18:13;;;;;;;;;;;19.30;64.80;;;;;;5029289;28;824;-69
2023/06/02 08:20:40;;;;;;;;;;;19.30;65.10;;;;;;5027561;28;856;-69
2023/06/02 08:23:07;;;;;;;;;;;19.30;65.20;;;;;;5030519;28;1263;-70
2023/06/02 08:25:32;;;;;;;;;;;19.30;65.20;;;;;;5031212;28;847;-69
2023/06/02 08:27:58;;;;;;;;;;;19.30;65.20;;;;;;5027106;28;955;-69
2023/06/02 08:30:23;;;;;;;;;;;19.30;65.30;;;;;;5029913;28;1902;-70
2023/06/02 08:32:49;;;;;;;;;;;19.30;65.30;;;;;;5028023;28;1327;-70
2023/06/02 08:35:14;;;;;;;;;;;19.30;65.50;;;;;;5026016;28;1454;-70
2023/06/02 08:37:40;;;;;;;;;;;19.30;65.50;;;;;;5027605;28;1068;-70
2023/06/02 08:40:06;;;;;;;;;;;19.30;65.50;;;;;;5029315;28;1275;-70
2023/06/02 08:42:31;;;;;;;;;;;19.30;65.60;;;;;;5027808;28;1364;-70
2023/06/02 08:44:58;;;;;;;;;;;19.30;65.60;;;;;;5026626;28;1065;-69
2023/06/02 08:47:23;;;;;;;;;;;19.30;65.60;;;;;;5020451;28;891;-70
2023/06/02 08:49:49;;;;;;;;;;;19.30;65.80;;;;;;5028132;28;1950;-68
2023/06/02 08:52:15;;;;;;;;;;;19.40;66.80;;;;;;5029201;28;1351;-68
2023/06/02 08:54:41;;;;;;;;;;;19.40;66.10;;;;;;5028564;28;957;-69
2023/06/02 08:57:07;;;;;;;;;;;19.40;66.00;;;;;;5025950;28;880;-70
2023/06/02 08:59:33;;;;;;;;;;;19.40;66.00;;;;;;5010893;28;1378;-70
2023/06/02 09:01:59;;;;;;;;;;;19.40;66.00;;;;;;5028251;28;1400;-70
2023/06/02 09:04:25;;;;;;;;;;;19.40;66.00;;;;;;5025470;28;1286;-69
2023/06/02 09:07:16;;;;;;;;;;;19.40;66.10;;;;;;5027381;28;1062;-70
2023/06/02 09:09:43;;;;;;;;;;;19.40;66.20;;;;;;5026849;28;1910;-70
2023/06/02 09:12:08;;;;;;;;;;;19.40;66.30;;;;;;5026694;28;908;-70
2023/06/02 09:14:34;;;;;;;;;;;19.40;66.30;;;;;;5027476;28;1318;-68
2023/06/02 09:17:00;;;;;;;;;;;19.40;66.30;;;;;;5029330;28;983;-68
2023/06/02 09:19:25;;;;;;;;;;;19.50;66.40;;;;;;5026977;28;817;-69
2023/06/02 09:21:51;;;;;;;;;;;19.50;66.50;;;;;;5026105;28;1645;-70
2023/06/02 09:24:32;;;;;;;;;;;19.50;66.50;;;;;;5026816;28;1438;-71
2023/06/02 09:26:57;;;;;;;;;;;19.50;66.50;;;;;;5027870;28;864;-70
2023/06/02 09:29:23;;;;;;;;;;;19.50;66.50;;;;;;5027043;28;1894;-70
2023/06/02 09:31:51;;;;;;;;;;;19.50;66.60;;;;;;5026901;28;867;-68
2023/06/02 09:34:16;;;;;;;;;;;19.50;66.60;;;;;;5027236;28;1365;-68
2023/06/02 09:36:42;;;;;;;;;;;19.50;66.60;;;;;;5023235;28;1607;-68
2023/06/02 09:39:10;;;;;;;;;;;19.50;66.80;;;;;;5017786;28;894;-71
2023/06/02 09:41:39;;;;;;;;;;;19.50;66.80;;;;;;5028015;28;1346;-68
2023/06/02 09:44:11;;;;;;;;;;;19.50;66.90;;;;;;5024537;28;2430;-70
2023/06/02 09:46:41;;;;;;;;;;;19.50;67.00;;;;;;5025374;28;2437;-68
2023/06/02 09:49:07;;;;;;;;;;;19.50;67.10;;;;;;5027436;28;1938;-69
2023/06/02 09:51:33;;;;;;;;;;;19.50;67.20;;;;;;5026675;28;976;-69
2023/06/02 09:53:58;;;;;;;;;;;19.50;67.50;;;;;;5024990;28;1393;-69
2023/06/02 09:56:24;;;;;;;;;;;19.50;67.70;;;;;;5023270;28;848;-68
2023/06/02 09:58:50;;;;;;;;;;;19.50;67.80;;;;;;5024401;28;846;-67
2023/06/02 10:01:15;;;;;;;;;;;19.50;67.90;;;;;;5024801;28;838;-69
2023/06/02 10:03:42;;;;;;;;;;;19.50;68.10;;;;;;5023277;28;1288;-69
2023/06/02 10:06:30;;;;;;;;;;;19.50;68.10;;;;;;5025986;28;1467;-69
2023/06/02 10:09:08;;;;;;;;;;;19.50;68.60;;;;;;5027533;28;1910;-70
2023/06/02 10:11:59;;;;;;;;;;;19.50;69.10;;;;;;5016676;28;1203;-69
2023/06/02 10:14:31;;;;;;;;;;;19.60;69.20;;;;;;5025305;28;1152;-69
2023/06/02 10:17:02;;;;;;;;;;;19.60;69.00;;;;;;5026780;28;876;-69
2023/06/02 10:19:34;;;;;;;;;;;19.60;68.80;;;;;;5030528;28;836;-69
2023/06/02 10:22:06;;;;;;;;;;;19.60;68.50;;;;;;5028979;28;869;-69
2023/06/02 10:24:36;;;;;;;;;;;19.60;68.70;;;;;;5026991;28;1295;-69
2023/06/02 10:27:22;;;;;;;;;;;19.60;68.90;;;;;;5028800;28;842;-70
2023/06/02 10:29:52;;;;;;;;;;;19.60;68.90;;;;;;5028240;28;1926;-70
2023/06/02 10:32:22;;;;;;;;;;;19.70;68.90;;;;;;5032130;28;1232;-68
2023/06/02 10:34:51;;;;;;;;;;;19.70;68.60;;;;;;5031327;28;1381;-68
2023/06/02 10:37:17;;;;;;;;;;;19.70;68.40;;;;;;5028526;28;883;-69
2023/06/02 10:39:42;;;;;;;;;;;19.70;68.40;;;;;;5032117;28;833;-68
2023/06/02 10:42:08;;;;;;;;;;;19.60;68.40;;;;;;5029533;28;1359;-68
2023/06/02 10:44:34;;;;;;;;;;;19.70;68.50;;;;;;5028975;28;1312;-69
2023/06/02 10:47:17;;;;;;;;;;;19.70;68.40;;;;;;5029516;28;854;-70
2023/06/02 10:49:59;;;;;;;;;;;19.60;68.30;;;;;;5031524;28;1910;-69
2023/06/02 10:52:31;;;;;;;;;;;19.60;68.30;;;;;;5029570;28;1344;-68
2023/06/02 10:55:06;;;;;;;;;;;19.60;68.40;;;;;;5026376;28;1378;-68
2023/06/02 10:57:50;;;;;;;;;;;19.60;68.40;;;;;;5031080;28;1131;-68
2023/06/02 11:00:27;;;;;;;;;;;19.60;68.70;;;;;;5030238;28;1353;-68
2023/06/02 11:02:53;;;;;;;;;;;19.60;68.50;;;;;;5029667;28;1257;-67
2023/06/02 11:05:25;;;;;;;;;;;19.60;68.40;;;;;;5030871;28;848;-67
2023/06/02 11:08:09;;;;;;;;;;;19.60;68.40;;;;;;5029437;28;2131;-68
2023/06/02 11:10:46;;;;;;;;;;;19.60;68.50;;;;;;5031587;28;1938;-68
2023/06/02 11:13:18;;;;;;;;;;;19.70;68.60;;;;;;5028944;28;1277;-69
2023/06/02 11:15:59;;;;;;;;;;;19.60;68.70;;;;;;5030759;28;1030;-69
2023/06/02 11:18:33;;;;;;;;;;;19.70;68.80;;;;;;5029194;28;910;-69
2023/06/02 11:21:00;;;;;;;;;;;19.70;68.80;;;;;;5029839;28;883;-69
2023/06/02 11:23:25;;;;;;;;;;;19.70;68.70;;;;;;5025594;28;2122;-68
2023/06/02 11:26:11;;;;;;;;;;;19.70;68.70;;;;;;5029595;28;966;-69
2023/06/02 11:28:36;;;;;;;;;;;19.60;68.80;;;;;;5029068;28;1894;-68
2023/06/02 11:31:06;;;;;;;;;;;19.60;68.90;;;;;;5027100;28;1275;-69
2023/06/02 11:33:35;;;;;;;;;;;19.70;68.80;;;;;;5031967;28;1213;-71
2023/06/02 11:36:00;;;;;;;;;;;19.70;68.90;;;;;;5021409;28;935;-70
2023/06/02 11:38:31;;;;;;;;;;;19.70;68.90;;;;;;5029829;28;910;-69
2023/06/02 11:41:07;;;;;;;;;;;19.70;68.80;;;;;;5030578;28;1260;-68
2023/06/02 11:43:32;;;;;;;;;;;19.70;68.70;;;;;;5028468;28;1255;-68
2023/06/02 11:46:08;;;;;;;;;;;19.70;68.80;;;;;;5025576;28;864;-68
2023/06/02 11:48:37;;;;;;;;;;;19.70;69.00;;;;;;5012000;28;838;-68
2023/06/02 11:51:03;;;;;;;;;;;19.70;69.10;;;;;;5026760;28;844;-68
2023/06/02 11:53:29;;;;;;;;;;;19.70;69.10;;;;;;5025988;28;1634;-68
2023/06/02 11:55:54;;;;;;;;;;;19.70;69.30;;;;;;5022902;28;873;-68
2023/06/02 11:58:22;;;;;;;;;;;19.70;69.40;;;;;;5028652;28;932;-68
2023/06/02 12:00:48;;;;;;;;;;;19.70;69.50;;;;;;5026475;28;1448;-68
2023/06/02 12:03:14;;;;;;;;;;;19.70;69.50;;;;;;5030133;28;1250;-68
2023/06/02 12:05:43;;;;;;;;;;;19.70;69.80;;;;;;5028202;28;835;-68
2023/06/02 12:08:20;;;;;;;;;;;19.70;69.10;;;;;;5028486;28;915;-68
2023/06/02 12:10:46;;;;;;;;;;;19.70;68.90;;;;;;5028987;28;2015;-68
2023/06/02 12:13:21;;;;;;;;;;;19.60;67.70;;;;;;5024205;28;1318;-68
2023/06/02 12:15:47;;;;;;;;;;;19.60;68.30;;;;;;5028428;28;1275;-68
2023/06/02 12:18:12;;;;;;;;;;;19.60;67.50;;;;;;5027021;28;1084;-68
2023/06/02 12:20:39;;;;;;;;;;;19.50;67.30;;;;;;5029860;28;880;-68
2023/06/02 12:23:06;;;;;;;;;;;19.50;67.10;;;;;;5028545;28;1378;-67
2023/06/02 12:25:32;;;;;;;;;;;19.50;66.80;;;;;;5027512;28;1327;-68
2023/06/02 12:28:04;;;;;;;;;;;19.50;66.70;;;;;;5024609;28;1564;-68
2023/06/02 12:30:29;;;;;;;;;;;19.50;66.50;;;;;;5029451;28;1906;-68
2023/06/02 12:32:55;;;;;;;;;;;19.50;66.30;;;;;;5028843;28;1271;-69
2023/06/02 12:35:20;;;;;;;;;;;19.40;66.10;;;;;;5027401;28;1520;-69
2023/06/02 12:37:46;;;;;;;;;;;19.40;65.90;;;;;;5023384;28;947;-69
2023/06/02 12:40:12;;;;;;;;;;;19.40;65.70;;;;;;5025927;28;850;-70
2023/06/02 12:42:37;;;;;;;;;;;19.40;65.70;;;;;;5025864;28;1460;-71
2023/06/02 12:45:03;;;;;;;;;;;19.40;63.70;;;;;;5028314;28;1453;-69
2023/06/02 12:47:28;;;;;;;;;;;19.40;65.00;;;;;;5028843;28;1151;-68
2023/06/02 12:49:54;;;;;;;;;;;19.40;65.00;;;;;;5028388;28;1963;-68
2023/06/02 12:52:19;;;;;;;;;;;19.40;64.50;;;;;;5027263;28;1373;-69
2023/06/02 12:54:45;;;;;;;;;;;19.40;64.10;;;;;;5024042;28;873;-69
2023/06/02 12:57:10;;;;;;;;;;;19.40;60.90;;;;;;5028020;28;876;-69
2023/06/02 12:59:36;;;;;;;;;;;19.30;61.50;;;;;;5026156;28;1242;-67
2023/06/02 13:02:01;;;;;;;;;;;19.30;62.20;;;;;;5028989;28;793;-69
2023/06/02 13:04:27;;;;;;;;;;;19.30;61.90;;;;;;5026668;28;1346;-69
2023/06/02 13:06:53;;;;;;;;;;;19.30;61.80;;;;;;5027445;28;852;-69
2023/06/02 13:09:18;;;;;;;;;;;19.30;61.80;;;;;;5028654;28;2246;-69
2023/06/02 13:11:46;;;;;;;;;;;19.30;61.60;;;;;;5027818;28;1109;-69
2023/06/02 13:14:12;;;;;;;;;;;19.30;61.60;;;;;;5025059;28;1300;-69
2023/06/02 13:16:37;;;;;;;;;;;19.30;61.70;;;;;;5026198;28;971;-69
2023/06/02 13:19:03;;;;;;;;;;;19.30;61.60;;;;;;5029076;28;858;-69
2023/06/02 13:21:29;;;;;;;;;;;19.30;61.30;;;;;;5025397;28;1022;-69
2023/06/02 13:23:57;;;;;;;;;;;19.30;61.30;;;;;;5028399;28;1349;-68
2023/06/02 13:26:22;;;;;;;;;;;19.30;61.30;;;;;;5026427;28;867;-69
2023/06/02 13:28:48;;;;;;;;;;;19.30;60.20;;;;;;5024829;28;2753;-69
2023/06/02 13:31:13;;;;;;;;;;;19.30;60.30;;;;;;5026846;28;2192;-69
2023/06/02 13:33:39;;;;;;;;;;;19.30;60.20;;;;;;5027132;28;2187;-69
2023/06/02 13:36:04;;;;;;;;;;;19.30;59.70;;;;;;5025662;28;2119;-69
2023/06/02 13:38:30;;;;;;;;;;;19.30;59.40;;;;;;5029321;28;1151;-68
2023/06/02 13:40:57;;;;;;;;;;;19.30;59.30;;;;;;5022932;28;1302;-69
2023/06/02 13:43:22;;;;;;;;;;;19.30;59.40;;;;;;5024313;28;1391;-69
2023/06/02 13:45:48;;;;;;;;;;;19.30;59.40;;;;;;5023743;28;918;-69
2023/06/02 13:48:13;;;;;;;;;;;19.30;59.20;;;;;;5026867;28;927;-69
2023/06/02 13:50:39;;;;;;;;;;;19.30;59.30;;;;;;5022249;28;1910;-69
2023/06/02 13:53:04;;;;;;;;;;;19.30;59.10;;;;;;5030143;28;1381;-69
2023/06/02 13:55:31;;;;;;;;;;;19.30;59.00;;;;;;5032746;28;884;-69
2023/06/02 13:57:57;;;;;;;;;;;19.30;58.90;;;;;;5032559;28;840;-69
2023/06/02 14:00:22;;;;;;;;;;;19.30;58.90;;;;;;5029740;28;909;-69
2023/06/02 14:02:48;;;;;;;;;;;19.30;58.80;;;;;;5030650;28;1292;-69
2023/06/02 14:05:13;;;;;;;;;;;19.30;59.00;;;;;;5029336;28;1050;-69
2023/06/02 14:07:39;;;;;;;;;;;19.30;59.20;;;;;;5032245;28;889;-70
2023/06/02 14:10:04;;;;;;;;;;;19.30;59.20;;;;;;5028579;28;1906;-68
2023/06/02 14:12:30;;;;;;;;;;;19.20;59.20;;;;;;5031091;28;1347;-69
2023/06/02 14:14:55;;;;;;;;;;;19.20;58.70;;;;;;5030184;28;926;-69
2023/06/02 14:17:22;;;;;;;;;;;19.20;58.70;;;;;;5030456;28;1062;-68
2023/06/02 14:19:47;;;;;;;;;;;19.20;58.70;;;;;;5030310;28;844;-67
2023/06/02 14:22:13;;;;;;;;;;;19.20;58.60;;;;;;5032473;28;1410;-67
2023/06/02 14:24:38;;;;;;;;;;;19.30;58.60;;;;;;5031694;28;902;-67
2023/06/02 14:27:04;;;;;;;;;;;19.20;58.70;;;;;;5032176;28;955;-70
2023/06/02 14:29:29;;;;;;;;;;;19.20;58.30;;;;;;5028217;28;1922;-68
2023/06/02 14:31:55;;;;;;;;;;;19.20;58.60;;;;;;5028644;28;1047;-69
2023/06/02 14:34:20;;;;;;;;;;;19.20;58.60;;;;;;5028774;28;1221;-70